sensor_id;sensor_type;location;lat;lon;timestamp;P1;durP1;ratioP1;P2;durP2;ratioP2
2452;SDS011;63678;47.994;7.854;2023-02-28T00:00:50;8.80;;;4.63;;
2452;SDS011;63678;47.994;7.854;2023-02-28T00:03:22;6.87;;;4.47;;
2452;SDS011;63678;47.994;7.854;2023-02-28T00:05:55;7.70;;;4.57;;
2452;SDS011;63678;47.994;7.854;2023-02-28T00:08:27;8.30;;;4.78;;
2452;SDS011;63678;47.994;7.854;2023-02-28T00:11:10;7.32;;;4.50;;
2452;SDS011;63678;47.994;7.854;2023-02-28T00:13:45;7.43;;;4.85;;
2452;SDS011;63678;47.994;7.854;2023-02-28T00:16:19;7.13;;;4.60;;
2452;SDS011;63678;47.994;7.854;2023-02-28T00:18:53;8.13;;;4.60;;
2452;SDS011;63678;47.994;7.854;2023-02-28T00:21:25;6.53;;;4.47;;
2452;SDS011;63678;47.994;7.854;2023-02-28T00:23:58;7.82;;;4.35;;
2452;SDS011;63678;47.994;7.854;2023-02-28T00:26:31;7.70;;;4.13;;
2452;SDS011;63678;47.994;7.854;2023-02-28T00:29:03;7.97;;;4.63;;
2452;SDS011;63678;47.994;7.854;2023-02-28T00:31:35;8.35;;;4.47;;
2452;SDS011;63678;47.994;7.854;2023-02-28T00:34:07;7.22;;;4.40;;
2452;SDS011;63678;47.994;7.854;2023-02-28T00:36:40;7.57;;;4.55;;
2452;SDS011;63678;47.994;7.854;2023-02-28T00:39:16;9.35;;;4.70;;
2452;SDS011;63678;47.994;7.854;2023-02-28T00:41:49;9.53;;;4.47;;
2452;SDS011;63678;47.994;7.854;2023-02-28T00:44:21;7.80;;;4.75;;
2452;SDS011;63678;47.994;7.854;2023-02-28T00:46:53;7.22;;;4.65;;
2452;SDS011;63678;47.994;7.854;2023-02-28T00:49:28;9.00;;;5.60;;
2452;SDS011;63678;47.994;7.854;2023-02-28T00:52:00;7.53;;;4.97;;
2452;SDS011;63678;47.994;7.854;2023-02-28T00:54:33;8.50;;;4.80;;
2452;SDS011;63678;47.994;7.854;2023-02-28T00:57:05;8.25;;;4.93;;
2452;SDS011;63678;47.994;7.854;2023-02-28T00:59:38;10.90;;;5.47;;
2452;SDS011;63678;47.994;7.854;2023-02-28T01:02:10;9.02;;;4.95;;
2452;SDS011;63678;47.994;7.854;2023-02-28T01:04:43;8.00;;;4.82;;
2452;SDS011;63678;47.994;7.854;2023-02-28T01:07:15;7.50;;;4.50;;
2452;SDS011;63678;47.994;7.854;2023-02-28T01:09:48;9.48;;;4.85;;
2452;SDS011;63678;47.994;7.854;2023-02-28T01:12:20;10.38;;;4.90;;
2452;SDS011;63678;47.994;7.854;2023-02-28T01:14:52;9.65;;;5.22;;
2452;SDS011;63678;47.994;7.854;2023-02-28T01:17:25;9.80;;;4.80;;
2452;SDS011;63678;47.994;7.854;2023-02-28T01:19:58;8.83;;;5.67;;
2452;SDS011;63678;47.994;7.854;2023-02-28T01:22:30;8.13;;;4.70;;
2452;SDS011;63678;47.994;7.854;2023-02-28T01:25:02;8.93;;;5.15;;
2452;SDS011;63678;47.994;7.854;2023-02-28T01:27:35;7.90;;;4.75;;
2452;SDS011;63678;47.994;7.854;2023-02-28T01:30:08;8.43;;;4.65;;
2452;SDS011;63678;47.994;7.854;2023-02-28T01:32:41;7.37;;;4.53;;
2452;SDS011;63678;47.994;7.854;2023-02-28T01:35:13;7.72;;;4.65;;
2452;SDS011;63678;47.994;7.854;2023-02-28T01:37:45;9.65;;;4.97;;
2452;SDS011;63678;47.994;7.854;2023-02-28T01:40:18;8.07;;;5.18;;
2452;SDS011;63678;47.994;7.854;2023-02-28T01:42:50;8.75;;;5.55;;
2452;SDS011;63678;47.994;7.854;2023-02-28T01:45:25;8.23;;;5.20;;
2452;SDS011;63678;47.994;7.854;2023-02-28T01:48:02;9.63;;;4.93;;
2452;SDS011;63678;47.994;7.854;2023-02-28T01:50:39;8.68;;;5.05;;
2452;SDS011;63678;47.994;7.854;2023-02-28T01:53:20;7.65;;;4.60;;
2452;SDS011;63678;47.994;7.854;2023-02-28T01:56:01;8.98;;;5.00;;
2452;SDS011;63678;47.994;7.854;2023-02-28T01:58:38;9.20;;;4.80;;
2452;SDS011;63678;47.994;7.854;2023-02-28T02:01:11;7.50;;;4.93;;
2452;SDS011;63678;47.994;7.854;2023-02-28T02:03:54;9.55;;;5.25;;
2452;SDS011;63678;47.994;7.854;2023-02-28T02:06:33;7.70;;;4.80;;
2452;SDS011;63678;47.994;7.854;2023-02-28T02:09:14;8.00;;;4.40;;
2452;SDS011;63678;47.994;7.854;2023-02-28T02:11:46;6.53;;;4.50;;
2452;SDS011;63678;47.994;7.854;2023-02-28T02:17:19;8.52;;;4.75;;
2452;SDS011;63678;47.994;7.854;2023-02-28T02:20:13;9.30;;;4.88;;
2452;SDS011;63678;47.994;7.854;2023-02-28T02:23:01;9.30;;;4.95;;
2452;SDS011;63678;47.994;7.854;2023-02-28T02:25:54;7.23;;;4.63;;
2452;SDS011;63678;47.994;7.854;2023-02-28T02:29:00;8.05;;;4.90;;
2452;SDS011;63678;47.994;7.854;2023-02-28T02:35:40;8.75;;;5.13;;
2452;SDS011;63678;47.994;7.854;2023-02-28T02:38:47;6.90;;;4.38;;
2452;SDS011;63678;47.994;7.854;2023-02-28T02:41:36;9.43;;;4.73;;
2452;SDS011;63678;47.994;7.854;2023-02-28T02:47:17;8.75;;;5.07;;
2452;SDS011;63678;47.994;7.854;2023-02-28T02:49:53;9.90;;;4.80;;
2452;SDS011;63678;47.994;7.854;2023-02-28T02:52:34;6.97;;;4.60;;
2452;SDS011;63678;47.994;7.854;2023-02-28T02:55:17;8.20;;;4.67;;
2452;SDS011;63678;47.994;7.854;2023-02-28T02:57:59;11.30;;;5.32;;
2452;SDS011;63678;47.994;7.854;2023-02-28T03:00:41;7.40;;;4.75;;
2452;SDS011;63678;47.994;7.854;2023-02-28T03:03:18;10.73;;;5.03;;
2452;SDS011;63678;47.994;7.854;2023-02-28T03:06:00;8.88;;;4.78;;
2452;SDS011;63678;47.994;7.854;2023-02-28T03:08:36;8.60;;;5.30;;
2452;SDS011;63678;47.994;7.854;2023-02-28T03:11:12;8.88;;;4.90;;
2452;SDS011;63678;47.994;7.854;2023-02-28T03:14:03;7.65;;;5.22;;
2452;SDS011;63678;47.994;7.854;2023-02-28T03:26:43;8.88;;;4.97;;
2452;SDS011;63678;47.994;7.854;2023-02-28T03:29:23;10.40;;;4.90;;
2452;SDS011;63678;47.994;7.854;2023-02-28T03:37:55;8.37;;;4.47;;
2452;SDS011;63678;47.994;7.854;2023-02-28T03:40:38;8.18;;;4.75;;
2452;SDS011;63678;47.994;7.854;2023-02-28T03:43:20;8.88;;;5.40;;
2452;SDS011;63678;47.994;7.854;2023-02-28T03:45:57;9.48;;;4.90;;
2452;SDS011;63678;47.994;7.854;2023-02-28T03:48:45;7.78;;;4.82;;
2452;SDS011;63678;47.994;7.854;2023-02-28T03:51:24;6.40;;;4.40;;
2452;SDS011;63678;47.994;7.854;2023-02-28T03:54:02;8.73;;;5.47;;
2452;SDS011;63678;47.994;7.854;2023-02-28T03:56:43;9.85;;;4.95;;
2452;SDS011;63678;47.994;7.854;2023-02-28T03:59:36;7.35;;;5.10;;
2452;SDS011;63678;47.994;7.854;2023-02-28T04:02:14;7.30;;;4.50;;
2452;SDS011;63678;47.994;7.854;2023-02-28T04:04:46;7.43;;;4.70;;
2452;SDS011;63678;47.994;7.854;2023-02-28T04:07:20;7.72;;;4.88;;
2452;SDS011;63678;47.994;7.854;2023-02-28T04:09:53;8.30;;;4.95;;
2452;SDS011;63678;47.994;7.854;2023-02-28T04:12:25;7.60;;;5.00;;
2452;SDS011;63678;47.994;7.854;2023-02-28T04:14:57;8.77;;;4.70;;
2452;SDS011;63678;47.994;7.854;2023-02-28T04:17:30;7.17;;;4.93;;
2452;SDS011;63678;47.994;7.854;2023-02-28T04:20:02;8.07;;;5.18;;
2452;SDS011;63678;47.994;7.854;2023-02-28T04:22:40;7.88;;;4.47;;
2452;SDS011;63678;47.994;7.854;2023-02-28T04:25:14;7.95;;;4.90;;
2452;SDS011;63678;47.994;7.854;2023-02-28T04:27:46;10.88;;;5.20;;
2452;SDS011;63678;47.994;7.854;2023-02-28T04:30:18;8.80;;;5.00;;
2452;SDS011;63678;47.994;7.854;2023-02-28T04:32:50;6.60;;;4.50;;
2452;SDS011;63678;47.994;7.854;2023-02-28T04:35:23;7.45;;;5.35;;
2452;SDS011;63678;47.994;7.854;2023-02-28T04:37:55;9.40;;;5.63;;
2452;SDS011;63678;47.994;7.854;2023-02-28T04:40:27;9.02;;;5.38;;
2452;SDS011;63678;47.994;7.854;2023-02-28T04:43:00;9.77;;;5.20;;
2452;SDS011;63678;47.994;7.854;2023-02-28T04:45:32;10.20;;;5.78;;
2452;SDS011;63678;47.994;7.854;2023-02-28T04:48:05;8.77;;;5.38;;
2452;SDS011;63678;47.994;7.854;2023-02-28T04:50:37;12.02;;;6.03;;
2452;SDS011;63678;47.994;7.854;2023-02-28T04:53:09;7.40;;;5.20;;
2452;SDS011;63678;47.994;7.854;2023-02-28T04:55:42;8.00;;;5.27;;
2452;SDS011;63678;47.994;7.854;2023-02-28T04:58:14;9.85;;;5.40;;
2452;SDS011;63678;47.994;7.854;2023-02-28T05:00:46;8.95;;;5.22;;
2452;SDS011;63678;47.994;7.854;2023-02-28T05:03:19;9.43;;;5.85;;
2452;SDS011;63678;47.994;7.854;2023-02-28T05:05:53;7.88;;;5.32;;
2452;SDS011;63678;47.994;7.854;2023-02-28T05:08:25;9.13;;;6.30;;
2452;SDS011;63678;47.994;7.854;2023-02-28T05:10:58;9.00;;;5.40;;
2452;SDS011;63678;47.994;7.854;2023-02-28T05:13:32;9.38;;;5.65;;
2452;SDS011;63678;47.994;7.854;2023-02-28T05:16:04;10.57;;;5.82;;
2452;SDS011;63678;47.994;7.854;2023-02-28T05:18:37;12.18;;;6.10;;
2452;SDS011;63678;47.994;7.854;2023-02-28T05:23:59;8.35;;;5.03;;
2452;SDS011;63678;47.994;7.854;2023-02-28T05:26:38;8.80;;;5.32;;
2452;SDS011;63678;47.994;7.854;2023-02-28T05:29:13;12.63;;;6.35;;
2452;SDS011;63678;47.994;7.854;2023-02-28T05:31:45;9.00;;;5.55;;
2452;SDS011;63678;47.994;7.854;2023-02-28T05:34:18;10.47;;;6.33;;
2452;SDS011;63678;47.994;7.854;2023-02-28T05:36:51;13.25;;;6.47;;
2452;SDS011;63678;47.994;7.854;2023-02-28T05:39:23;9.30;;;5.78;;
2452;SDS011;63678;47.994;7.854;2023-02-28T05:41:56;12.32;;;6.10;;
2452;SDS011;63678;47.994;7.854;2023-02-28T05:44:28;9.38;;;6.13;;
2452;SDS011;63678;47.994;7.854;2023-02-28T05:47:01;9.93;;;5.83;;
2452;SDS011;63678;47.994;7.854;2023-02-28T05:49:33;11.20;;;6.22;;
2452;SDS011;63678;47.994;7.854;2023-02-28T05:52:06;10.50;;;5.88;;
2452;SDS011;63678;47.994;7.854;2023-02-28T05:54:39;10.63;;;6.32;;
2452;SDS011;63678;47.994;7.854;2023-02-28T05:57:11;10.32;;;6.38;;
2452;SDS011;63678;47.994;7.854;2023-02-28T05:59:55;9.10;;;5.93;;
2452;SDS011;63678;47.994;7.854;2023-02-28T06:02:27;10.05;;;6.45;;
2452;SDS011;63678;47.994;7.854;2023-02-28T06:04:59;10.55;;;7.03;;
2452;SDS011;63678;47.994;7.854;2023-02-28T06:07:32;12.85;;;6.80;;
2452;SDS011;63678;47.994;7.854;2023-02-28T06:10:05;10.68;;;6.63;;
2452;SDS011;63678;47.994;7.854;2023-02-28T06:12:38;14.87;;;7.23;;
2452;SDS011;63678;47.994;7.854;2023-02-28T06:15:13;10.93;;;6.35;;
2452;SDS011;63678;47.994;7.854;2023-02-28T06:17:47;12.05;;;6.97;;
2452;SDS011;63678;47.994;7.854;2023-02-28T06:20:19;11.05;;;6.35;;
2452;SDS011;63678;47.994;7.854;2023-02-28T06:22:51;11.02;;;6.70;;
2452;SDS011;63678;47.994;7.854;2023-02-28T06:25:26;12.83;;;7.40;;
2452;SDS011;63678;47.994;7.854;2023-02-28T06:27:59;13.63;;;7.80;;
2452;SDS011;63678;47.994;7.854;2023-02-28T06:30:31;12.27;;;7.07;;
2452;SDS011;63678;47.994;7.854;2023-02-28T06:33:05;10.32;;;6.78;;
2452;SDS011;63678;47.994;7.854;2023-02-28T06:35:37;15.93;;;7.32;;
2452;SDS011;63678;47.994;7.854;2023-02-28T06:38:10;10.13;;;6.50;;
2452;SDS011;63678;47.994;7.854;2023-02-28T06:40:43;11.75;;;7.65;;
2452;SDS011;63678;47.994;7.854;2023-02-28T06:43:16;12.85;;;7.30;;
2452;SDS011;63678;47.994;7.854;2023-02-28T06:45:48;11.98;;;6.95;;
2452;SDS011;63678;47.994;7.854;2023-02-28T06:48:21;13.30;;;7.95;;
2452;SDS011;63678;47.994;7.854;2023-02-28T06:51:01;27.77;;;12.47;;
2452;SDS011;63678;47.994;7.854;2023-02-28T06:53:42;15.43;;;9.32;;
2452;SDS011;63678;47.994;7.854;2023-02-28T06:56:16;16.98;;;8.27;;
2452;SDS011;63678;47.994;7.854;2023-02-28T06:58:49;11.95;;;7.18;;
2452;SDS011;63678;47.994;7.854;2023-02-28T07:01:24;10.07;;;6.22;;
2452;SDS011;63678;47.994;7.854;2023-02-28T07:03:56;11.90;;;6.57;;
2452;SDS011;63678;47.994;7.854;2023-02-28T07:06:29;10.60;;;6.78;;
2452;SDS011;63678;47.994;7.854;2023-02-28T07:09:01;14.82;;;7.45;;
2452;SDS011;63678;47.994;7.854;2023-02-28T07:11:35;14.20;;;7.55;;
2452;SDS011;63678;47.994;7.854;2023-02-28T07:14:07;11.95;;;7.15;;
2452;SDS011;63678;47.994;7.854;2023-02-28T07:16:40;9.80;;;6.53;;
2452;SDS011;63678;47.994;7.854;2023-02-28T07:19:12;10.80;;;7.30;;
2452;SDS011;63678;47.994;7.854;2023-02-28T07:21:44;14.10;;;7.15;;
2452;SDS011;63678;47.994;7.854;2023-02-28T07:24:17;10.13;;;7.10;;
2452;SDS011;63678;47.994;7.854;2023-02-28T07:26:49;11.98;;;6.97;;
2452;SDS011;63678;47.994;7.854;2023-02-28T07:29:21;12.07;;;7.20;;
2452;SDS011;63678;47.994;7.854;2023-02-28T07:31:54;16.65;;;7.07;;
2452;SDS011;63678;47.994;7.854;2023-02-28T07:34:26;13.75;;;6.78;;
2452;SDS011;63678;47.994;7.854;2023-02-28T07:36:58;11.18;;;6.63;;
2452;SDS011;63678;47.994;7.854;2023-02-28T07:39:35;14.05;;;7.63;;
2452;SDS011;63678;47.994;7.854;2023-02-28T07:42:07;13.33;;;7.70;;
2452;SDS011;63678;47.994;7.854;2023-02-28T07:44:43;10.88;;;6.97;;
2452;SDS011;63678;47.994;7.854;2023-02-28T07:47:15;13.35;;;7.55;;
2452;SDS011;63678;47.994;7.854;2023-02-28T07:49:47;13.52;;;7.78;;
2452;SDS011;63678;47.994;7.854;2023-02-28T07:52:20;17.35;;;7.78;;
2452;SDS011;63678;47.994;7.854;2023-02-28T07:54:54;14.53;;;7.83;;
2452;SDS011;63678;47.994;7.854;2023-02-28T07:57:27;11.55;;;7.32;;
2452;SDS011;63678;47.994;7.854;2023-02-28T07:59:59;12.32;;;7.95;;
2452;SDS011;63678;47.994;7.854;2023-02-28T08:02:41;11.65;;;7.35;;
2452;SDS011;63678;47.994;7.854;2023-02-28T08:05:14;13.63;;;7.40;;
2452;SDS011;63678;47.994;7.854;2023-02-28T08:07:48;12.03;;;6.87;;
2452;SDS011;63678;47.994;7.854;2023-02-28T08:10:21;12.63;;;7.00;;
2452;SDS011;63678;47.994;7.854;2023-02-28T08:12:53;12.02;;;7.10;;
2452;SDS011;63678;47.994;7.854;2023-02-28T08:15:26;13.82;;;7.00;;
2452;SDS011;63678;47.994;7.854;2023-02-28T08:17:58;11.13;;;7.07;;
2452;SDS011;63678;47.994;7.854;2023-02-28T08:20:31;13.60;;;7.43;;
2452;SDS011;63678;47.994;7.854;2023-02-28T08:23:03;13.18;;;6.85;;
2452;SDS011;63678;47.994;7.854;2023-02-28T08:25:36;12.90;;;6.35;;
2452;SDS011;63678;47.994;7.854;2023-02-28T08:28:08;15.05;;;6.70;;
2452;SDS011;63678;47.994;7.854;2023-02-28T08:30:40;10.90;;;6.45;;
2452;SDS011;63678;47.994;7.854;2023-02-28T08:33:13;13.73;;;6.87;;
2452;SDS011;63678;47.994;7.854;2023-02-28T08:35:45;13.05;;;6.13;;
2452;SDS011;63678;47.994;7.854;2023-02-28T08:38:17;11.25;;;6.60;;
2452;SDS011;63678;47.994;7.854;2023-02-28T08:40:49;10.25;;;6.53;;
2452;SDS011;63678;47.994;7.854;2023-02-28T08:43:30;11.68;;;6.63;;
2452;SDS011;63678;47.994;7.854;2023-02-28T08:46:03;12.70;;;6.43;;
2452;SDS011;63678;47.994;7.854;2023-02-28T08:48:42;10.07;;;6.07;;
2452;SDS011;63678;47.994;7.854;2023-02-28T08:51:16;10.55;;;6.13;;
2452;SDS011;63678;47.994;7.854;2023-02-28T08:53:53;12.32;;;7.43;;
2452;SDS011;63678;47.994;7.854;2023-02-28T08:56:29;15.73;;;6.80;;
2452;SDS011;63678;47.994;7.854;2023-02-28T08:59:02;9.97;;;6.30;;
2452;SDS011;63678;47.994;7.854;2023-02-28T09:01:34;16.23;;;6.70;;
2452;SDS011;63678;47.994;7.854;2023-02-28T09:04:08;13.57;;;6.20;;
2452;SDS011;63678;47.994;7.854;2023-02-28T09:06:45;10.45;;;6.32;;
2452;SDS011;63678;47.994;7.854;2023-02-28T09:09:19;14.15;;;6.60;;
2452;SDS011;63678;47.994;7.854;2023-02-28T09:11:52;18.60;;;8.27;;
2452;SDS011;63678;47.994;7.854;2023-02-28T09:14:26;13.40;;;7.63;;
2452;SDS011;63678;47.994;7.854;2023-02-28T09:16:59;14.30;;;8.32;;
2452;SDS011;63678;47.994;7.854;2023-02-28T09:19:31;10.77;;;6.50;;
2452;SDS011;63678;47.994;7.854;2023-02-28T09:22:04;11.77;;;6.70;;
2452;SDS011;63678;47.994;7.854;2023-02-28T09:24:37;9.73;;;6.43;;
2452;SDS011;63678;47.994;7.854;2023-02-28T09:27:15;10.15;;;6.38;;
2452;SDS011;63678;47.994;7.854;2023-02-28T09:29:47;12.55;;;6.85;;
2452;SDS011;63678;47.994;7.854;2023-02-28T09:32:19;11.07;;;6.00;;
2452;SDS011;63678;47.994;7.854;2023-02-28T09:34:52;10.07;;;6.30;;
2452;SDS011;63678;47.994;7.854;2023-02-28T09:37:25;11.07;;;7.65;;
2452;SDS011;63678;47.994;7.854;2023-02-28T09:40:02;11.27;;;7.20;;
2452;SDS011;63678;47.994;7.854;2023-02-28T09:42:35;13.98;;;6.53;;
2452;SDS011;63678;47.994;7.854;2023-02-28T09:45:21;11.60;;;7.45;;
2452;SDS011;63678;47.994;7.854;2023-02-28T09:47:59;10.52;;;7.13;;
2452;SDS011;63678;47.994;7.854;2023-02-28T09:50:38;12.30;;;6.95;;
2452;SDS011;63678;47.994;7.854;2023-02-28T09:53:28;12.35;;;7.05;;
2452;SDS011;63678;47.994;7.854;2023-02-28T09:56:09;10.55;;;7.22;;
2452;SDS011;63678;47.994;7.854;2023-02-28T09:59:02;11.13;;;6.43;;
2452;SDS011;63678;47.994;7.854;2023-02-28T10:04:59;12.88;;;7.68;;
2452;SDS011;63678;47.994;7.854;2023-02-28T10:10:18;12.88;;;6.63;;
2452;SDS011;63678;47.994;7.854;2023-02-28T10:12:57;12.15;;;6.68;;
2452;SDS011;63678;47.994;7.854;2023-02-28T10:15:32;12.13;;;7.35;;
2452;SDS011;63678;47.994;7.854;2023-02-28T10:18:09;15.25;;;8.15;;
2452;SDS011;63678;47.994;7.854;2023-02-28T10:20:48;15.98;;;6.85;;
2452;SDS011;63678;47.994;7.854;2023-02-28T10:26:05;12.27;;;7.40;;
2452;SDS011;63678;47.994;7.854;2023-02-28T10:28:44;10.75;;;7.20;;
2452;SDS011;63678;47.994;7.854;2023-02-28T10:31:18;17.40;;;7.75;;
2452;SDS011;63678;47.994;7.854;2023-02-28T10:33:51;10.48;;;7.20;;
2452;SDS011;63678;47.994;7.854;2023-02-28T10:36:23;10.63;;;7.10;;
2452;SDS011;63678;47.994;7.854;2023-02-28T10:38:58;16.48;;;7.70;;
2452;SDS011;63678;47.994;7.854;2023-02-28T10:41:32;10.15;;;6.57;;
2452;SDS011;63678;47.994;7.854;2023-02-28T10:44:16;10.23;;;7.05;;
2452;SDS011;63678;47.994;7.854;2023-02-28T10:46:54;12.87;;;7.60;;
2452;SDS011;63678;47.994;7.854;2023-02-28T10:49:28;13.68;;;7.22;;
2452;SDS011;63678;47.994;7.854;2023-02-28T10:52:00;11.10;;;7.28;;
2452;SDS011;63678;47.994;7.854;2023-02-28T10:54:34;11.07;;;7.38;;
2452;SDS011;63678;47.994;7.854;2023-02-28T10:57:16;9.30;;;7.00;;
2452;SDS011;63678;47.994;7.854;2023-02-28T10:59:52;10.73;;;7.35;;
2452;SDS011;63678;47.994;7.854;2023-02-28T11:02:45;9.38;;;6.75;;
2452;SDS011;63678;47.994;7.854;2023-02-28T11:08:12;11.07;;;7.15;;
2452;SDS011;63678;47.994;7.854;2023-02-28T11:10:48;10.68;;;7.32;;
2452;SDS011;63678;47.994;7.854;2023-02-28T11:13:28;12.80;;;7.57;;
2452;SDS011;63678;47.994;7.854;2023-02-28T11:16:10;8.82;;;6.47;;
2452;SDS011;63678;47.994;7.854;2023-02-28T11:18:54;10.10;;;6.57;;
2452;SDS011;63678;47.994;7.854;2023-02-28T11:21:28;11.15;;;7.10;;
2452;SDS011;63678;47.994;7.854;2023-02-28T11:24:19;12.52;;;7.13;;
2452;SDS011;63678;47.994;7.854;2023-02-28T11:27:01;10.00;;;7.00;;
2452;SDS011;63678;47.994;7.854;2023-02-28T11:29:34;11.38;;;6.97;;
2452;SDS011;63678;47.994;7.854;2023-02-28T11:32:12;10.48;;;7.07;;
2452;SDS011;63678;47.994;7.854;2023-02-28T11:37:42;10.73;;;7.45;;
2452;SDS011;63678;47.994;7.854;2023-02-28T11:40:18;11.00;;;7.00;;
2452;SDS011;63678;47.994;7.854;2023-02-28T11:43:30;11.43;;;7.03;;
2452;SDS011;63678;47.994;7.854;2023-02-28T11:49:32;12.63;;;7.55;;
2452;SDS011;63678;47.994;7.854;2023-02-28T11:52:21;10.98;;;7.20;;
2452;SDS011;63678;47.994;7.854;2023-02-28T11:55:32;12.13;;;7.40;;
2452;SDS011;63678;47.994;7.854;2023-02-28T11:58:21;12.85;;;7.85;;
2452;SDS011;63678;47.994;7.854;2023-02-28T12:01:08;13.82;;;8.38;;
2452;SDS011;63678;47.994;7.854;2023-02-28T12:04:16;11.23;;;7.97;;
2452;SDS011;63678;47.994;7.854;2023-02-28T12:07:30;13.17;;;7.27;;
2452;SDS011;63678;47.994;7.854;2023-02-28T12:10:28;13.63;;;8.00;;
2452;SDS011;63678;47.994;7.854;2023-02-28T12:13:18;12.98;;;8.18;;
2452;SDS011;63678;47.994;7.854;2023-02-28T12:19:18;14.98;;;8.40;;
2452;SDS011;63678;47.994;7.854;2023-02-28T12:27:54;13.30;;;7.78;;
2452;SDS011;63678;47.994;7.854;2023-02-28T12:30:35;12.20;;;7.50;;
2452;SDS011;63678;47.994;7.854;2023-02-28T12:33:15;13.98;;;8.40;;
2452;SDS011;63678;47.994;7.854;2023-02-28T12:35:58;14.30;;;8.20;;
2452;SDS011;63678;47.994;7.854;2023-02-28T12:38:38;13.85;;;8.65;;
2452;SDS011;63678;47.994;7.854;2023-02-28T12:44:32;16.73;;;8.85;;
2452;SDS011;63678;47.994;7.854;2023-02-28T12:47:19;15.55;;;8.55;;
2452;SDS011;63678;47.994;7.854;2023-02-28T12:49:58;16.47;;;7.93;;
2452;SDS011;63678;47.994;7.854;2023-02-28T12:52:44;13.25;;;8.40;;
2452;SDS011;63678;47.994;7.854;2023-02-28T12:55:39;16.20;;;8.68;;
2452;SDS011;63678;47.994;7.854;2023-02-28T13:07:27;13.02;;;8.05;;
2452;SDS011;63678;47.994;7.854;2023-02-28T13:10:37;12.73;;;7.78;;
2452;SDS011;63678;47.994;7.854;2023-02-28T13:13:16;16.30;;;8.65;;
2452;SDS011;63678;47.994;7.854;2023-02-28T13:15:59;13.75;;;8.43;;
2452;SDS011;63678;47.994;7.854;2023-02-28T13:18:39;12.50;;;8.13;;
2452;SDS011;63678;47.994;7.854;2023-02-28T13:21:24;12.55;;;7.93;;
2452;SDS011;63678;47.994;7.854;2023-02-28T13:24:01;12.23;;;8.00;;
2452;SDS011;63678;47.994;7.854;2023-02-28T13:32:51;12.93;;;8.33;;
2452;SDS011;63678;47.994;7.854;2023-02-28T13:37:41;14.00;;;8.30;;
2452;SDS011;63678;47.994;7.854;2023-02-28T13:40:31;13.75;;;8.23;;
2452;SDS011;63678;47.994;7.854;2023-02-28T13:43:11;15.82;;;8.73;;
2452;SDS011;63678;47.994;7.854;2023-02-28T13:46:08;16.23;;;8.83;;
2452;SDS011;63678;47.994;7.854;2023-02-28T13:48:44;12.85;;;8.20;;
2452;SDS011;63678;47.994;7.854;2023-02-28T14:06:28;14.30;;;8.05;;
2452;SDS011;63678;47.994;7.854;2023-02-28T14:11:57;13.55;;;8.90;;
2452;SDS011;63678;47.994;7.854;2023-02-28T14:15:27;16.77;;;8.23;;
2452;SDS011;63678;47.994;7.854;2023-02-28T14:18:17;15.85;;;9.57;;
2452;SDS011;63678;47.994;7.854;2023-02-28T14:23:46;13.82;;;8.20;;
2452;SDS011;63678;47.994;7.854;2023-02-28T14:35:31;13.43;;;9.00;;
2452;SDS011;63678;47.994;7.854;2023-02-28T14:38:17;15.27;;;9.00;;
2452;SDS011;63678;47.994;7.854;2023-02-28T14:40:56;16.13;;;8.70;;
2452;SDS011;63678;47.994;7.854;2023-02-28T14:43:32;14.23;;;9.00;;
2452;SDS011;63678;47.994;7.854;2023-02-28T14:46:05;14.90;;;8.63;;
2452;SDS011;63678;47.994;7.854;2023-02-28T14:48:38;15.95;;;9.25;;
2452;SDS011;63678;47.994;7.854;2023-02-28T14:51:11;13.77;;;8.88;;
2452;SDS011;63678;47.994;7.854;2023-02-28T14:53:51;14.07;;;8.65;;
2452;SDS011;63678;47.994;7.854;2023-02-28T14:56:35;17.00;;;9.20;;
2452;SDS011;63678;47.994;7.854;2023-02-28T14:59:24;15.13;;;8.95;;
2452;SDS011;63678;47.994;7.854;2023-02-28T15:02:21;16.08;;;9.35;;
2452;SDS011;63678;47.994;7.854;2023-02-28T15:04:57;13.93;;;7.53;;
2452;SDS011;63678;47.994;7.854;2023-02-28T15:07:32;14.02;;;8.43;;
2452;SDS011;63678;47.994;7.854;2023-02-28T15:12:57;15.23;;;9.27;;
2452;SDS011;63678;47.994;7.854;2023-02-28T15:15:48;13.90;;;8.68;;
2452;SDS011;63678;47.994;7.854;2023-02-28T15:21:32;17.10;;;8.88;;
2452;SDS011;63678;47.994;7.854;2023-02-28T15:24:14;14.67;;;8.70;;
2452;SDS011;63678;47.994;7.854;2023-02-28T15:27:16;14.55;;;8.57;;
2452;SDS011;63678;47.994;7.854;2023-02-28T15:29:59;14.48;;;8.75;;
2452;SDS011;63678;47.994;7.854;2023-02-28T15:32:38;19.27;;;9.55;;
2452;SDS011;63678;47.994;7.854;2023-02-28T15:35:27;14.90;;;9.45;;
2452;SDS011;63678;47.994;7.854;2023-02-28T15:38:17;16.03;;;9.87;;
2452;SDS011;63678;47.994;7.854;2023-02-28T15:40:58;17.63;;;9.80;;
2452;SDS011;63678;47.994;7.854;2023-02-28T15:43:31;14.93;;;9.38;;
2452;SDS011;63678;47.994;7.854;2023-02-28T15:46:10;16.73;;;10.43;;
2452;SDS011;63678;47.994;7.854;2023-02-28T15:48:55;16.90;;;10.10;;
2452;SDS011;63678;47.994;7.854;2023-02-28T15:51:32;16.70;;;9.83;;
2452;SDS011;63678;47.994;7.854;2023-02-28T15:54:10;18.00;;;9.82;;
2452;SDS011;63678;47.994;7.854;2023-02-28T15:56:52;17.33;;;9.95;;
2452;SDS011;63678;47.994;7.854;2023-02-28T15:59:28;17.25;;;10.68;;
2452;SDS011;63678;47.994;7.854;2023-02-28T16:07:48;15.80;;;9.30;;
2452;SDS011;63678;47.994;7.854;2023-02-28T16:10:20;17.30;;;10.20;;
2452;SDS011;63678;47.994;7.854;2023-02-28T16:12:56;18.05;;;10.13;;
2452;SDS011;63678;47.994;7.854;2023-02-28T16:15:31;20.75;;;10.23;;
2452;SDS011;63678;47.994;7.854;2023-02-28T16:18:13;18.93;;;10.33;;
2452;SDS011;63678;47.994;7.854;2023-02-28T16:20:46;17.05;;;9.73;;
2452;SDS011;63678;47.994;7.854;2023-02-28T16:23:18;16.48;;;9.80;;
2452;SDS011;63678;47.994;7.854;2023-02-28T16:25:51;15.40;;;9.65;;
2452;SDS011;63678;47.994;7.854;2023-02-28T16:28:24;14.63;;;9.40;;
2452;SDS011;63678;47.994;7.854;2023-02-28T16:31:03;15.87;;;10.07;;
2452;SDS011;63678;47.994;7.854;2023-02-28T16:33:38;17.23;;;10.00;;
2452;SDS011;63678;47.994;7.854;2023-02-28T16:36:15;18.05;;;10.23;;
2452;SDS011;63678;47.994;7.854;2023-02-28T16:38:59;14.82;;;9.57;;
2452;SDS011;63678;47.994;7.854;2023-02-28T16:41:33;19.42;;;9.95;;
2452;SDS011;63678;47.994;7.854;2023-02-28T16:44:07;21.23;;;9.97;;
2452;SDS011;63678;47.994;7.854;2023-02-28T16:46:46;18.58;;;10.18;;
2452;SDS011;63678;47.994;7.854;2023-02-28T16:49:18;20.13;;;11.18;;
2452;SDS011;63678;47.994;7.854;2023-02-28T16:51:50;16.13;;;9.77;;
2452;SDS011;63678;47.994;7.854;2023-02-28T16:54:22;19.50;;;10.45;;
2452;SDS011;63678;47.994;7.854;2023-02-28T16:56:55;15.10;;;10.30;;
2452;SDS011;63678;47.994;7.854;2023-02-28T16:59:27;16.00;;;9.27;;
2452;SDS011;63678;47.994;7.854;2023-02-28T17:02:00;16.50;;;10.75;;
2452;SDS011;63678;47.994;7.854;2023-02-28T17:04:33;18.08;;;9.57;;
2452;SDS011;63678;47.994;7.854;2023-02-28T17:07:08;16.77;;;9.77;;
2452;SDS011;63678;47.994;7.854;2023-02-28T17:09:44;20.63;;;10.07;;
2452;SDS011;63678;47.994;7.854;2023-02-28T17:12:17;16.92;;;10.30;;
2452;SDS011;63678;47.994;7.854;2023-02-28T17:14:49;19.45;;;10.00;;
2452;SDS011;63678;47.994;7.854;2023-02-28T17:17:22;15.18;;;9.80;;
2452;SDS011;63678;47.994;7.854;2023-02-28T17:19:54;19.42;;;10.73;;
2452;SDS011;63678;47.994;7.854;2023-02-28T17:22:26;19.80;;;10.80;;
2452;SDS011;63678;47.994;7.854;2023-02-28T17:24:58;18.17;;;10.93;;
2452;SDS011;63678;47.994;7.854;2023-02-28T17:27:31;18.52;;;11.00;;
2452;SDS011;63678;47.994;7.854;2023-02-28T17:30:25;16.88;;;9.80;;
2452;SDS011;63678;47.994;7.854;2023-02-28T17:32:59;19.17;;;10.00;;
2452;SDS011;63678;47.994;7.854;2023-02-28T17:35:31;15.97;;;9.90;;
2452;SDS011;63678;47.994;7.854;2023-02-28T17:38:03;21.55;;;10.95;;
2452;SDS011;63678;47.994;7.854;2023-02-28T17:40:36;18.92;;;10.73;;
2452;SDS011;63678;47.994;7.854;2023-02-28T17:43:09;17.35;;;10.70;;
2452;SDS011;63678;47.994;7.854;2023-02-28T17:45:42;17.23;;;10.05;;
2452;SDS011;63678;47.994;7.854;2023-02-28T17:48:14;17.20;;;10.10;;